sensor_id;sensor_type;location;lat;lon;timestamp;P1;durP1;ratioP1;P2;durP2;ratioP2
65387;SDS011;51992;53.528;49.474;2023-07-09T00:01:41;21.05;;;13.48;;
65387;SDS011;51992;53.528;49.474;2023-07-09T00:04:10;17.67;;;12.93;;
65387;SDS011;51992;53.528;49.474;2023-07-09T00:06:37;20.00;;;13.20;;
65387;SDS011;51992;53.528;49.474;2023-07-09T00:09:03;22.90;;;13.05;;
65387;SDS011;51992;53.528;49.474;2023-07-09T00:11:30;26.45;;;13.75;;
65387;SDS011;51992;53.528;49.474;2023-07-09T00:13:56;25.55;;;13.55;;
65387;SDS011;51992;53.528;49.474;2023-07-09T00:16:23;23.58;;;13.48;;
65387;SDS011;51992;53.528;49.474;2023-07-09T00:18:50;22.33;;;12.35;;
65387;SDS011;51992;53.528;49.474;2023-07-09T00:21:16;25.95;;;13.65;;
65387;SDS011;51992;53.528;49.474;2023-07-09T00:23:43;29.92;;;13.30;;
65387;SDS011;51992;53.528;49.474;2023-07-09T00:26:12;20.38;;;13.40;;
65387;SDS011;51992;53.528;49.474;2023-07-09T00:28:42;17.40;;;12.30;;
65387;SDS011;51992;53.528;49.474;2023-07-09T00:31:15;21.10;;;13.65;;
65387;SDS011;51992;53.528;49.474;2023-07-09T00:33:42;17.27;;;13.50;;
65387;SDS011;51992;53.528;49.474;2023-07-09T00:36:15;24.58;;;14.20;;
65387;SDS011;51992;53.528;49.474;2023-07-09T00:38:41;29.65;;;14.77;;
65387;SDS011;51992;53.528;49.474;2023-07-09T00:41:15;20.45;;;13.02;;
65387;SDS011;51992;53.528;49.474;2023-07-09T00:43:43;22.02;;;14.10;;
65387;SDS011;51992;53.528;49.474;2023-07-09T00:48:42;27.88;;;13.60;;
65387;SDS011;51992;53.528;49.474;2023-07-09T00:51:15;28.35;;;13.48;;
65387;SDS011;51992;53.528;49.474;2023-07-09T00:53:42;21.38;;;12.95;;
65387;SDS011;51992;53.528;49.474;2023-07-09T00:56:16;17.88;;;12.68;;
65387;SDS011;51992;53.528;49.474;2023-07-09T00:58:45;16.83;;;12.20;;
65387;SDS011;51992;53.528;49.474;2023-07-09T01:01:16;19.05;;;12.38;;
65387;SDS011;51992;53.528;49.474;2023-07-09T01:03:45;17.70;;;12.07;;
65387;SDS011;51992;53.528;49.474;2023-07-09T01:06:11;21.73;;;12.88;;
65387;SDS011;51992;53.528;49.474;2023-07-09T01:08:39;30.98;;;16.55;;
65387;SDS011;51992;53.528;49.474;2023-07-09T01:11:17;58.95;;;24.70;;
65387;SDS011;51992;53.528;49.474;2023-07-09T01:13:51;50.35;;;26.58;;
65387;SDS011;51992;53.528;49.474;2023-07-09T01:16:18;47.42;;;29.35;;
65387;SDS011;51992;53.528;49.474;2023-07-09T01:18:44;52.47;;;28.42;;
65387;SDS011;51992;53.528;49.474;2023-07-09T01:21:10;44.20;;;26.38;;
65387;SDS011;51992;53.528;49.474;2023-07-09T01:23:41;40.53;;;22.38;;
65387;SDS011;51992;53.528;49.474;2023-07-09T01:26:19;31.05;;;19.48;;
65387;SDS011;51992;53.528;49.474;2023-07-09T01:28:46;27.35;;;14.98;;
65387;SDS011;51992;53.528;49.474;2023-07-09T01:31:13;30.50;;;14.90;;
65387;SDS011;51992;53.528;49.474;2023-07-09T01:33:40;32.25;;;14.65;;
65387;SDS011;51992;53.528;49.474;2023-07-09T01:36:07;31.83;;;14.88;;
65387;SDS011;51992;53.528;49.474;2023-07-09T01:38:33;26.55;;;13.75;;
65387;SDS011;51992;53.528;49.474;2023-07-09T01:41:00;31.02;;;14.25;;
65387;SDS011;51992;53.528;49.474;2023-07-09T01:43:26;26.98;;;14.68;;
65387;SDS011;51992;53.528;49.474;2023-07-09T01:45:52;30.48;;;14.15;;
65387;SDS011;51992;53.528;49.474;2023-07-09T01:48:18;38.92;;;14.85;;
65387;SDS011;51992;53.528;49.474;2023-07-09T01:50:46;30.00;;;13.73;;
65387;SDS011;51992;53.528;49.474;2023-07-09T01:53:12;36.70;;;13.73;;
65387;SDS011;51992;53.528;49.474;2023-07-09T01:55:38;29.33;;;13.38;;
65387;SDS011;51992;53.528;49.474;2023-07-09T01:58:04;23.63;;;12.85;;
65387;SDS011;51992;53.528;49.474;2023-07-09T02:00:35;16.60;;;12.10;;
65387;SDS011;51992;53.528;49.474;2023-07-09T02:03:01;22.27;;;12.15;;
65387;SDS011;51992;53.528;49.474;2023-07-09T02:05:28;22.95;;;12.52;;
65387;SDS011;51992;53.528;49.474;2023-07-09T02:07:55;24.50;;;11.80;;
65387;SDS011;51992;53.528;49.474;2023-07-09T02:10:20;21.95;;;12.07;;
65387;SDS011;51992;53.528;49.474;2023-07-09T02:12:46;22.00;;;12.05;;
65387;SDS011;51992;53.528;49.474;2023-07-09T02:15:13;25.77;;;13.05;;
65387;SDS011;51992;53.528;49.474;2023-07-09T02:17:39;37.47;;;12.98;;
65387;SDS011;51992;53.528;49.474;2023-07-09T02:20:05;32.60;;;13.82;;
65387;SDS011;51992;53.528;49.474;2023-07-09T02:22:33;30.25;;;13.60;;
65387;SDS011;51992;53.528;49.474;2023-07-09T02:24:59;29.23;;;13.05;;
65387;SDS011;51992;53.528;49.474;2023-07-09T02:27:25;24.92;;;12.93;;
65387;SDS011;51992;53.528;49.474;2023-07-09T02:29:51;25.77;;;14.40;;
65387;SDS011;51992;53.528;49.474;2023-07-09T02:32:21;21.00;;;13.10;;
65387;SDS011;51992;53.528;49.474;2023-07-09T02:34:47;24.48;;;19.95;;
65387;SDS011;51992;53.528;49.474;2023-07-09T02:37:15;27.58;;;14.20;;
65387;SDS011;51992;53.528;49.474;2023-07-09T02:39:42;30.00;;;23.08;;
65387;SDS011;51992;53.528;49.474;2023-07-09T02:42:09;22.90;;;16.90;;
65387;SDS011;51992;53.528;49.474;2023-07-09T02:44:35;24.95;;;15.95;;
65387;SDS011;51992;53.528;49.474;2023-07-09T02:47:01;22.75;;;14.90;;
65387;SDS011;51992;53.528;49.474;2023-07-09T02:49:27;22.92;;;14.20;;
65387;SDS011;51992;53.528;49.474;2023-07-09T02:51:53;30.55;;;14.68;;
65387;SDS011;51992;53.528;49.474;2023-07-09T02:54:19;21.00;;;13.93;;
65387;SDS011;51992;53.528;49.474;2023-07-09T02:56:44;22.95;;;13.82;;
65387;SDS011;51992;53.528;49.474;2023-07-09T02:59:10;18.20;;;12.13;;
65387;SDS011;51992;53.528;49.474;2023-07-09T03:01:37;21.27;;;12.60;;
65387;SDS011;51992;53.528;49.474;2023-07-09T03:04:03;22.77;;;13.35;;
65387;SDS011;51992;53.528;49.474;2023-07-09T03:06:29;18.13;;;11.60;;
65387;SDS011;51992;53.528;49.474;2023-07-09T03:08:58;17.90;;;12.15;;
65387;SDS011;51992;53.528;49.474;2023-07-09T03:11:27;20.60;;;12.25;;
65387;SDS011;51992;53.528;49.474;2023-07-09T03:13:53;22.85;;;12.60;;
65387;SDS011;51992;53.528;49.474;2023-07-09T03:16:19;18.30;;;12.10;;
65387;SDS011;51992;53.528;49.474;2023-07-09T03:18:45;21.63;;;12.57;;
65387;SDS011;51992;53.528;49.474;2023-07-09T03:21:11;20.27;;;12.52;;
65387;SDS011;51992;53.528;49.474;2023-07-09T03:23:37;22.52;;;12.70;;
65387;SDS011;51992;53.528;49.474;2023-07-09T03:26:03;19.00;;;13.50;;
65387;SDS011;51992;53.528;49.474;2023-07-09T03:28:32;23.05;;;14.10;;
65387;SDS011;51992;53.528;49.474;2023-07-09T03:30:58;26.08;;;12.32;;
65387;SDS011;51992;53.528;49.474;2023-07-09T03:33:24;19.58;;;12.13;;
65387;SDS011;51992;53.528;49.474;2023-07-09T03:35:51;20.10;;;12.70;;
65387;SDS011;51992;53.528;49.474;2023-07-09T03:38:17;17.73;;;11.75;;
65387;SDS011;51992;53.528;49.474;2023-07-09T03:40:43;22.58;;;11.50;;
65387;SDS011;51992;53.528;49.474;2023-07-09T03:43:09;14.65;;;10.40;;
65387;SDS011;51992;53.528;49.474;2023-07-09T03:45:36;15.07;;;10.57;;
65387;SDS011;51992;53.528;49.474;2023-07-09T03:48:02;16.88;;;9.70;;
65387;SDS011;51992;53.528;49.474;2023-07-09T03:50:29;14.80;;;9.70;;
65387;SDS011;51992;53.528;49.474;2023-07-09T03:52:54;16.58;;;9.35;;
65387;SDS011;51992;53.528;49.474;2023-07-09T03:55:20;11.40;;;9.27;;
65387;SDS011;51992;53.528;49.474;2023-07-09T03:57:46;14.27;;;8.95;;
65387;SDS011;51992;53.528;49.474;2023-07-09T04:00:13;12.65;;;9.35;;
65387;SDS011;51992;53.528;49.474;2023-07-09T04:02:39;13.60;;;9.00;;
65387;SDS011;51992;53.528;49.474;2023-07-09T04:05:06;15.25;;;9.48;;
65387;SDS011;51992;53.528;49.474;2023-07-09T04:07:34;12.50;;;8.73;;
65387;SDS011;51992;53.528;49.474;2023-07-09T04:10:00;12.65;;;8.93;;
65387;SDS011;51992;53.528;49.474;2023-07-09T04:12:26;14.68;;;8.98;;
65387;SDS011;51992;53.528;49.474;2023-07-09T04:14:52;14.00;;;9.02;;
65387;SDS011;51992;53.528;49.474;2023-07-09T04:17:18;11.85;;;9.25;;
65387;SDS011;51992;53.528;49.474;2023-07-09T04:19:43;12.68;;;9.15;;
65387;SDS011;51992;53.528;49.474;2023-07-09T04:22:12;14.13;;;9.82;;
65387;SDS011;51992;53.528;49.474;2023-07-09T04:24:38;16.73;;;9.30;;
65387;SDS011;51992;53.528;49.474;2023-07-09T04:27:04;12.55;;;8.75;;
65387;SDS011;51992;53.528;49.474;2023-07-09T04:29:30;15.82;;;9.00;;
65387;SDS011;51992;53.528;49.474;2023-07-09T04:31:59;14.65;;;9.38;;
65387;SDS011;51992;53.528;49.474;2023-07-09T04:34:25;13.73;;;9.40;;
65387;SDS011;51992;53.528;49.474;2023-07-09T04:36:51;14.25;;;9.75;;
65387;SDS011;51992;53.528;49.474;2023-07-09T04:39:17;14.38;;;9.15;;
65387;SDS011;51992;53.528;49.474;2023-07-09T04:41:43;18.42;;;9.23;;
65387;SDS011;51992;53.528;49.474;2023-07-09T04:44:09;15.60;;;9.50;;
65387;SDS011;51992;53.528;49.474;2023-07-09T04:46:34;13.95;;;9.63;;
65387;SDS011;51992;53.528;49.474;2023-07-09T04:49:00;13.25;;;9.02;;
65387;SDS011;51992;53.528;49.474;2023-07-09T04:51:26;13.20;;;8.50;;
65387;SDS011;51992;53.528;49.474;2023-07-09T04:53:52;15.10;;;8.73;;
65387;SDS011;51992;53.528;49.474;2023-07-09T04:56:18;13.40;;;8.50;;
65387;SDS011;51992;53.528;49.474;2023-07-09T04:58:44;17.30;;;9.07;;
65387;SDS011;51992;53.528;49.474;2023-07-09T05:01:10;14.18;;;8.80;;
65387;SDS011;51992;53.528;49.474;2023-07-09T05:03:36;12.25;;;8.43;;
65387;SDS011;51992;53.528;49.474;2023-07-09T05:06:02;15.88;;;8.80;;
65387;SDS011;51992;53.528;49.474;2023-07-09T05:08:28;17.70;;;10.15;;
65387;SDS011;51992;53.528;49.474;2023-07-09T05:10:56;14.93;;;9.75;;
65387;SDS011;51992;53.528;49.474;2023-07-09T05:13:22;14.60;;;9.02;;
65387;SDS011;51992;53.528;49.474;2023-07-09T05:15:48;14.60;;;8.32;;
65387;SDS011;51992;53.528;49.474;2023-07-09T05:18:14;11.48;;;8.80;;
65387;SDS011;51992;53.528;49.474;2023-07-09T05:20:41;11.80;;;8.45;;
65387;SDS011;51992;53.528;49.474;2023-07-09T05:23:10;11.90;;;7.90;;
65387;SDS011;51992;53.528;49.474;2023-07-09T05:25:36;12.30;;;8.32;;
65387;SDS011;51992;53.528;49.474;2023-07-09T05:28:02;11.60;;;7.75;;
65387;SDS011;51992;53.528;49.474;2023-07-09T05:30:28;11.30;;;7.60;;
65387;SDS011;51992;53.528;49.474;2023-07-09T05:32:54;12.07;;;7.72;;
65387;SDS011;51992;53.528;49.474;2023-07-09T05:35:24;10.05;;;7.85;;
65387;SDS011;51992;53.528;49.474;2023-07-09T05:40:20;10.88;;;7.80;;
65387;SDS011;51992;53.528;49.474;2023-07-09T05:42:46;10.15;;;7.53;;
65387;SDS011;51992;53.528;49.474;2023-07-09T05:45:12;13.05;;;7.68;;
65387;SDS011;51992;53.528;49.474;2023-07-09T05:47:38;14.30;;;8.02;;
65387;SDS011;51992;53.528;49.474;2023-07-09T05:50:04;11.30;;;7.57;;
65387;SDS011;51992;53.528;49.474;2023-07-09T05:52:30;14.43;;;8.40;;
65387;SDS011;51992;53.528;49.474;2023-07-09T05:54:56;8.85;;;6.97;;
65387;SDS011;51992;53.528;49.474;2023-07-09T05:57:23;13.70;;;8.00;;
65387;SDS011;51992;53.528;49.474;2023-07-09T05:59:49;10.38;;;8.00;;
65387;SDS011;51992;53.528;49.474;2023-07-09T06:02:16;14.18;;;7.82;;
65387;SDS011;51992;53.528;49.474;2023-07-09T06:04:43;15.20;;;7.75;;
65387;SDS011;51992;53.528;49.474;2023-07-09T06:07:09;11.70;;;8.05;;
65387;SDS011;51992;53.528;49.474;2023-07-09T06:09:35;15.00;;;8.15;;
65387;SDS011;51992;53.528;49.474;2023-07-09T06:12:02;15.98;;;7.28;;
65387;SDS011;51992;53.528;49.474;2023-07-09T06:14:29;11.50;;;8.00;;
65387;SDS011;51992;53.528;49.474;2023-07-09T06:16:56;13.52;;;7.63;;
65387;SDS011;51992;53.528;49.474;2023-07-09T06:19:22;15.20;;;7.55;;
65387;SDS011;51992;53.528;49.474;2023-07-09T06:21:48;13.70;;;6.97;;
65387;SDS011;51992;53.528;49.474;2023-07-09T06:24:14;14.27;;;7.25;;
65387;SDS011;51992;53.528;49.474;2023-07-09T06:26:39;13.25;;;7.57;;
65387;SDS011;51992;53.528;49.474;2023-07-09T06:29:05;11.18;;;7.50;;
65387;SDS011;51992;53.528;49.474;2023-07-09T06:31:34;11.20;;;7.88;;
65387;SDS011;51992;53.528;49.474;2023-07-09T06:34:01;14.65;;;8.32;;
65387;SDS011;51992;53.528;49.474;2023-07-09T06:36:27;14.80;;;7.60;;
65387;SDS011;51992;53.528;49.474;2023-07-09T06:38:53;14.43;;;8.40;;
65387;SDS011;51992;53.528;49.474;2023-07-09T06:41:19;13.95;;;7.40;;
65387;SDS011;51992;53.528;49.474;2023-07-09T06:43:46;9.77;;;7.30;;
65387;SDS011;51992;53.528;49.474;2023-07-09T06:46:15;16.05;;;8.05;;
65387;SDS011;51992;53.528;49.474;2023-07-09T06:48:41;13.82;;;7.80;;
65387;SDS011;51992;53.528;49.474;2023-07-09T06:51:07;14.45;;;7.68;;
65387;SDS011;51992;53.528;49.474;2023-07-09T06:53:33;13.20;;;8.00;;
65387;SDS011;51992;53.528;49.474;2023-07-09T06:55:58;11.50;;;7.88;;
65387;SDS011;51992;53.528;49.474;2023-07-09T06:58:26;12.10;;;7.78;;
65387;SDS011;51992;53.528;49.474;2023-07-09T07:00:53;15.63;;;7.00;;
65387;SDS011;51992;53.528;49.474;2023-07-09T07:03:20;10.48;;;7.40;;
65387;SDS011;51992;53.528;49.474;2023-07-09T07:05:46;11.05;;;7.35;;
65387;SDS011;51992;53.528;49.474;2023-07-09T07:08:15;12.70;;;7.28;;
65387;SDS011;51992;53.528;49.474;2023-07-09T07:10:41;9.18;;;6.85;;
65387;SDS011;51992;53.528;49.474;2023-07-09T07:13:08;8.80;;;6.88;;
65387;SDS011;51992;53.528;49.474;2023-07-09T07:15:36;11.32;;;7.72;;
65387;SDS011;51992;53.528;49.474;2023-07-09T07:18:02;12.35;;;7.22;;
65387;SDS011;51992;53.528;49.474;2023-07-09T07:20:29;13.38;;;6.88;;
65387;SDS011;51992;53.528;49.474;2023-07-09T07:22:56;8.45;;;6.93;;
65387;SDS011;51992;53.528;49.474;2023-07-09T07:25:22;10.18;;;6.13;;
65387;SDS011;51992;53.528;49.474;2023-07-09T07:27:48;12.02;;;6.65;;
65387;SDS011;51992;53.528;49.474;2023-07-09T07:30:13;11.80;;;6.80;;
65387;SDS011;51992;53.528;49.474;2023-07-09T07:32:46;12.70;;;6.80;;
65387;SDS011;51992;53.528;49.474;2023-07-09T07:35:13;11.50;;;6.72;;
65387;SDS011;51992;53.528;49.474;2023-07-09T07:37:40;14.50;;;6.78;;
65387;SDS011;51992;53.528;49.474;2023-07-09T07:40:06;10.48;;;5.90;;
65387;SDS011;51992;53.528;49.474;2023-07-09T07:42:32;14.60;;;6.93;;
65387;SDS011;51992;53.528;49.474;2023-07-09T07:44:58;9.85;;;6.60;;
65387;SDS011;51992;53.528;49.474;2023-07-09T07:47:24;14.73;;;6.40;;
65387;SDS011;51992;53.528;49.474;2023-07-09T07:49:51;10.25;;;6.57;;
65387;SDS011;51992;53.528;49.474;2023-07-09T07:52:17;8.93;;;6.68;;
65387;SDS011;51992;53.528;49.474;2023-07-09T07:54:43;10.20;;;7.05;;
65387;SDS011;51992;53.528;49.474;2023-07-09T07:57:08;16.17;;;6.65;;
65387;SDS011;51992;53.528;49.474;2023-07-09T07:59:35;15.23;;;6.95;;
65387;SDS011;51992;53.528;49.474;2023-07-09T08:02:02;10.68;;;6.65;;
65387;SDS011;51992;53.528;49.474;2023-07-09T08:04:28;11.88;;;6.93;;
65387;SDS011;51992;53.528;49.474;2023-07-09T08:06:54;14.27;;;7.60;;
65387;SDS011;51992;53.528;49.474;2023-07-09T08:09:20;15.48;;;7.43;;
65387;SDS011;51992;53.528;49.474;2023-07-09T08:11:46;12.00;;;6.75;;
65387;SDS011;51992;53.528;49.474;2023-07-09T08:14:12;11.40;;;7.65;;
65387;SDS011;51992;53.528;49.474;2023-07-09T08:16:38;10.50;;;7.18;;
65387;SDS011;51992;53.528;49.474;2023-07-09T08:19:04;13.27;;;7.50;;
65387;SDS011;51992;53.528;49.474;2023-07-09T08:21:30;10.68;;;7.57;;
65387;SDS011;51992;53.528;49.474;2023-07-09T08:23:56;10.73;;;7.13;;
65387;SDS011;51992;53.528;49.474;2023-07-09T08:26:23;10.40;;;7.70;;
65387;SDS011;51992;53.528;49.474;2023-07-09T08:28:50;11.02;;;7.40;;
65387;SDS011;51992;53.528;49.474;2023-07-09T08:31:16;10.00;;;6.90;;
65387;SDS011;51992;53.528;49.474;2023-07-09T08:33:42;8.60;;;6.72;;
65387;SDS011;51992;53.528;49.474;2023-07-09T08:36:08;13.15;;;7.35;;
65387;SDS011;51992;53.528;49.474;2023-07-09T08:38:34;10.82;;;7.63;;
65387;SDS011;51992;53.528;49.474;2023-07-09T08:41:02;12.13;;;7.57;;
65387;SDS011;51992;53.528;49.474;2023-07-09T08:48:44;16.98;;;8.98;;
65387;SDS011;51992;53.528;49.474;2023-07-09T08:53:59;12.20;;;7.43;;
65387;SDS011;51992;53.528;49.474;2023-07-09T08:56:26;9.25;;;7.43;;
65387;SDS011;51992;53.528;49.474;2023-07-09T08:58:53;12.63;;;7.10;;
65387;SDS011;51992;53.528;49.474;2023-07-09T09:01:24;12.90;;;8.43;;
65387;SDS011;51992;53.528;49.474;2023-07-09T09:04:03;13.68;;;7.25;;
65387;SDS011;51992;53.528;49.474;2023-07-09T09:06:30;12.15;;;7.85;;
65387;SDS011;51992;53.528;49.474;2023-07-09T09:13:55;9.07;;;7.25;;
65387;SDS011;51992;53.528;49.474;2023-07-09T09:16:25;15.63;;;7.47;;
65387;SDS011;51992;53.528;49.474;2023-07-09T09:18:52;10.75;;;7.20;;
65387;SDS011;51992;53.528;49.474;2023-07-09T09:21:28;10.70;;;7.00;;
65387;SDS011;51992;53.528;49.474;2023-07-09T09:23:56;12.43;;;7.18;;
65387;SDS011;51992;53.528;49.474;2023-07-09T09:26:30;14.48;;;7.68;;
65387;SDS011;51992;53.528;49.474;2023-07-09T09:28:56;11.98;;;7.18;;
65387;SDS011;51992;53.528;49.474;2023-07-09T09:31:24;15.02;;;7.10;;
65387;SDS011;51992;53.528;49.474;2023-07-09T09:33:50;10.38;;;7.70;;
65387;SDS011;51992;53.528;49.474;2023-07-09T09:36:21;16.08;;;8.02;;
65387;SDS011;51992;53.528;49.474;2023-07-09T09:41:25;15.27;;;7.72;;
65387;SDS011;51992;53.528;49.474;2023-07-09T09:43:55;15.48;;;7.95;;
65387;SDS011;51992;53.528;49.474;2023-07-09T09:46:23;8.90;;;6.63;;
65387;SDS011;51992;53.528;49.474;2023-07-09T09:48:50;15.00;;;7.45;;
65387;SDS011;51992;53.528;49.474;2023-07-09T09:51:17;10.40;;;7.22;;
65387;SDS011;51992;53.528;49.474;2023-07-09T09:53:47;11.90;;;8.05;;
65387;SDS011;51992;53.528;49.474;2023-07-09T09:56:16;13.10;;;7.35;;
65387;SDS011;51992;53.528;49.474;2023-07-09T09:58:43;9.95;;;7.00;;
65387;SDS011;51992;53.528;49.474;2023-07-09T10:01:17;9.52;;;7.90;;
65387;SDS011;51992;53.528;49.474;2023-07-09T10:03:43;9.93;;;8.10;;
65387;SDS011;51992;53.528;49.474;2023-07-09T10:06:17;11.63;;;8.35;;
65387;SDS011;51992;53.528;49.474;2023-07-09T10:11:29;8.80;;;7.50;;
65387;SDS011;51992;53.528;49.474;2023-07-09T10:14:00;12.40;;;8.45;;
65387;SDS011;51992;53.528;49.474;2023-07-09T10:16:34;10.90;;;8.18;;
65387;SDS011;51992;53.528;49.474;2023-07-09T10:24:24;12.75;;;8.32;;
65387;SDS011;51992;53.528;49.474;2023-07-09T10:34:34;18.23;;;9.23;;
65387;SDS011;51992;53.528;49.474;2023-07-09T10:39:49;13.75;;;9.00;;
65387;SDS011;51992;53.528;49.474;2023-07-09T10:45:02;15.00;;;8.95;;
65387;SDS011;51992;53.528;49.474;2023-07-09T10:47:30;12.00;;;8.85;;
65387;SDS011;51992;53.528;49.474;2023-07-09T10:49:57;14.13;;;9.07;;
65387;SDS011;51992;53.528;49.474;2023-07-09T10:57:22;18.48;;;8.88;;
65387;SDS011;51992;53.528;49.474;2023-07-09T10:59:50;13.50;;;8.32;;
65387;SDS011;51992;53.528;49.474;2023-07-09T11:02:26;11.52;;;8.65;;
65387;SDS011;51992;53.528;49.474;2023-07-09T11:04:57;17.60;;;9.30;;
65387;SDS011;51992;53.528;49.474;2023-07-09T11:07:33;16.80;;;8.32;;
65387;SDS011;51992;53.528;49.474;2023-07-09T11:10:03;12.23;;;8.38;;
65387;SDS011;51992;53.528;49.474;2023-07-09T11:12:37;17.77;;;8.63;;
65387;SDS011;51992;53.528;49.474;2023-07-09T11:15:06;12.73;;;7.93;;
65387;SDS011;51992;53.528;49.474;2023-07-09T11:17:34;15.23;;;8.35;;
65387;SDS011;51992;53.528;49.474;2023-07-09T11:20:06;14.57;;;8.25;;
65387;SDS011;51992;53.528;49.474;2023-07-09T11:22:40;17.50;;;9.27;;
65387;SDS011;51992;53.528;49.474;2023-07-09T11:25:08;14.63;;;7.97;;
65387;SDS011;51992;53.528;49.474;2023-07-09T11:27:34;14.32;;;8.43;;
65387;SDS011;51992;53.528;49.474;2023-07-09T11:30:26;11.55;;;8.50;;
65387;SDS011;51992;53.528;49.474;2023-07-09T11:32:56;11.60;;;8.73;;
65387;SDS011;51992;53.528;49.474;2023-07-09T11:35:24;13.38;;;8.60;;
65387;SDS011;51992;53.528;49.474;2023-07-09T11:37:50;13.38;;;8.05;;
65387;SDS011;51992;53.528;49.474;2023-07-09T11:40:18;14.13;;;8.40;;
65387;SDS011;51992;53.528;49.474;2023-07-09T11:45:14;12.15;;;8.65;;
65387;SDS011;51992;53.528;49.474;2023-07-09T11:47:47;10.73;;;8.13;;
65387;SDS011;51992;53.528;49.474;2023-07-09T11:50:22;14.68;;;8.15;;
65387;SDS011;51992;53.528;49.474;2023-07-09T11:52:58;11.20;;;9.10;;
65387;SDS011;51992;53.528;49.474;2023-07-09T11:55:41;12.35;;;9.40;;
65387;SDS011;51992;53.528;49.474;2023-07-09T11:58:08;12.38;;;8.57;;
65387;SDS011;51992;53.528;49.474;2023-07-09T12:00:41;11.52;;;9.52;;
65387;SDS011;51992;53.528;49.474;2023-07-09T12:03:10;16.42;;;9.60;;
65387;SDS011;51992;53.528;49.474;2023-07-09T12:05:37;12.38;;;8.60;;
65387;SDS011;51992;53.528;49.474;2023-07-09T12:08:05;14.35;;;8.57;;
65387;SDS011;51992;53.528;49.474;2023-07-09T12:10:32;13.07;;;8.45;;
65387;SDS011;51992;53.528;49.474;2023-07-09T12:12:59;12.18;;;8.18;;
65387;SDS011;51992;53.528;49.474;2023-07-09T12:15:29;12.00;;;8.27;;
65387;SDS011;51992;53.528;49.474;2023-07-09T12:17:58;15.07;;;8.75;;
65387;SDS011;51992;53.528;49.474;2023-07-09T12:20:25;13.35;;;8.00;;
65387;SDS011;51992;53.528;49.474;2023-07-09T12:22:51;10.55;;;7.75;;
65387;SDS011;51992;53.528;49.474;2023-07-09T12:25:18;11.18;;;8.18;;
65387;SDS011;51992;53.528;49.474;2023-07-09T12:27:45;12.25;;;8.25;;
65387;SDS011;51992;53.528;49.474;2023-07-09T12:30:11;15.02;;;7.97;;
65387;SDS011;51992;53.528;49.474;2023-07-09T12:32:43;14.20;;;8.63;;
65387;SDS011;51992;53.528;49.474;2023-07-09T12:35:11;18.23;;;8.05;;
65387;SDS011;51992;53.528;49.474;2023-07-09T12:37:37;13.68;;;8.00;;
65387;SDS011;51992;53.528;49.474;2023-07-09T12:40:04;13.32;;;8.25;;
65387;SDS011;51992;53.528;49.474;2023-07-09T12:42:32;11.90;;;8.40;;
65387;SDS011;51992;53.528;49.474;2023-07-09T12:44:58;20.40;;;9.13;;
65387;SDS011;51992;53.528;49.474;2023-07-09T12:47:24;13.40;;;8.20;;
65387;SDS011;51992;53.528;49.474;2023-07-09T12:49:51;12.48;;;7.75;;
65387;SDS011;51992;53.528;49.474;2023-07-09T12:52:21;17.08;;;8.38;;
65387;SDS011;51992;53.528;49.474;2023-07-09T12:55:06;11.57;;;8.05;;
65387;SDS011;51992;53.528;49.474;2023-07-09T12:57:32;10.88;;;8.02;;
65387;SDS011;51992;53.528;49.474;2023-07-09T12:59:59;14.32;;;8.40;;
65387;SDS011;51992;53.528;49.474;2023-07-09T13:02:27;11.80;;;7.95;;
65387;SDS011;51992;53.528;49.474;2023-07-09T13:05:03;12.48;;;7.97;;
65387;SDS011;51992;53.528;49.474;2023-07-09T13:07:31;12.27;;;8.60;;
65387;SDS011;51992;53.528;49.474;2023-07-09T13:10:23;14.13;;;8.45;;
65387;SDS011;51992;53.528;49.474;2023-07-09T13:12:50;13.60;;;8.25;;
65387;SDS011;51992;53.528;49.474;2023-07-09T13:16:00;14.50;;;8.57;;
65387;SDS011;51992;53.528;49.474;2023-07-09T13:18:07;14.48;;;8.60;;
65387;SDS011;51992;53.528;49.474;2023-07-09T13:20:36;12.02;;;8.43;;
65387;SDS011;51992;53.528;49.474;2023-07-09T13:23:14;12.65;;;7.95;;
65387;SDS011;51992;53.528;49.474;2023-07-09T13:25:40;16.38;;;8.63;;
65387;SDS011;51992;53.528;49.474;2023-07-09T13:28:11;18.88;;;9.00;;
65387;SDS011;51992;53.528;49.474;2023-07-09T13:30:39;12.65;;;7.78;;
65387;SDS011;51992;53.528;49.474;2023-07-09T13:33:08;19.52;;;7.93;;
65387;SDS011;51992;53.528;49.474;2023-07-09T13:35:35;12.85;;;8.45;;
65387;SDS011;51992;53.528;49.474;2023-07-09T13:38:01;12.25;;;7.78;;
65387;SDS011;51992;53.528;49.474;2023-07-09T13:40:29;17.52;;;8.55;;
65387;SDS011;51992;53.528;49.474;2023-07-09T13:42:55;12.38;;;8.00;;
65387;SDS011;51992;53.528;49.474;2023-07-09T13:45:23;26.27;;;8.32;;
65387;SDS011;51992;53.528;49.474;2023-07-09T13:47:49;12.07;;;7.97;;
65387;SDS011;51992;53.528;49.474;2023-07-09T13:50:16;15.43;;;8.27;;
65387;SDS011;51992;53.528;49.474;2023-07-09T13:52:42;12.57;;;8.10;;
65387;SDS011;51992;53.528;49.474;2023-07-09T13:55:26;14.20;;;8.65;;
65387;SDS011;51992;53.528;49.474;2023-07-09T13:57:52;16.50;;;9.07;;
65387;SDS011;51992;53.528;49.474;2023-07-09T14:00:18;13.20;;;8.40;;
65387;SDS011;51992;53.528;49.474;2023-07-09T14:02:45;17.17;;;9.00;;
65387;SDS011;51992;53.528;49.474;2023-07-09T14:05:12;11.65;;;8.45;;
65387;SDS011;51992;53.528;49.474;2023-07-09T14:07:39;15.75;;;8.55;;
65387;SDS011;51992;53.528;49.474;2023-07-09T14:10:06;17.00;;;9.00;;
65387;SDS011;51992;53.528;49.474;2023-07-09T14:12:32;16.60;;;8.63;;
65387;SDS011;51992;53.528;49.474;2023-07-09T14:14:59;49.67;;;9.35;;
65387;SDS011;51992;53.528;49.474;2023-07-09T14:17:26;523.83;;;44.67;;
65387;SDS011;51992;53.528;49.474;2023-07-09T14:19:52;120.88;;;13.75;;
65387;SDS011;51992;53.528;49.474;2023-07-09T14:22:30;41.97;;;9.55;;
65387;SDS011;51992;53.528;49.474;2023-07-09T14:24:57;15.48;;;6.38;;
65387;SDS011;51992;53.528;49.474;2023-07-09T14:27:23;13.57;;;5.95;;
65387;SDS011;51992;53.528;49.474;2023-07-09T14:29:49;14.43;;;6.35;;
65387;SDS011;51992;53.528;49.474;2023-07-09T14:32:36;10.63;;;5.80;;
65387;SDS011;51992;53.528;49.474;2023-07-09T14:35:02;11.93;;;5.60;;
65387;SDS011;51992;53.528;49.474;2023-07-09T14:37:28;11.48;;;5.10;;
65387;SDS011;51992;53.528;49.474;2023-07-09T14:39:54;8.07;;;4.97;;
65387;SDS011;51992;53.528;49.474;2023-07-09T14:42:20;7.40;;;5.10;;
65387;SDS011;51992;53.528;49.474;2023-07-09T14:44:48;42.20;;;9.88;;
65387;SDS011;51992;53.528;49.474;2023-07-09T14:47:16;197.55;;;32.13;;
65387;SDS011;51992;53.528;49.474;2023-07-09T14:49:42;58.30;;;14.02;;
65387;SDS011;51992;53.528;49.474;2023-07-09T14:52:11;12.88;;;5.57;;
65387;SDS011;51992;53.528;49.474;2023-07-09T14:54:37;10.63;;;5.28;;
65387;SDS011;51992;53.528;49.474;2023-07-09T14:57:03;10.25;;;4.28;;
65387;SDS011;51992;53.528;49.474;2023-07-09T14:59:34;13.18;;;4.53;;
65387;SDS011;51992;53.528;49.474;2023-07-09T15:01:59;9.77;;;4.45;;
65387;SDS011;51992;53.528;49.474;2023-07-09T15:06:52;9.88;;;4.68;;
65387;SDS011;51992;53.528;49.474;2023-07-09T15:09:22;12.25;;;4.85;;
65387;SDS011;51992;53.528;49.474;2023-07-09T15:14:15;36.50;;;9.10;;
65387;SDS011;51992;53.528;49.474;2023-07-09T15:16:41;15.82;;;6.82;;